createdAt,value
2018-03-26T00:02:05.427Z,3.70
2018-03-26T00:04:33.861Z,3.70
2018-03-26T00:07:01.367Z,3.60
2018-03-26T00:09:29.657Z,3.60
2018-03-26T00:11:57.932Z,3.60
2018-03-26T00:14:26.227Z,3.50
2018-03-26T00:16:53.754Z,3.50
2018-03-26T00:19:22.082Z,3.50
2018-03-26T00:21:49.686Z,3.50
2018-03-26T00:24:17.195Z,3.40
2018-03-26T00:26:45.491Z,3.40
2018-03-26T00:29:13.076Z,3.30
2018-03-26T00:31:40.595Z,3.40
2018-03-26T00:34:08.901Z,3.20
2018-03-26T00:36:36.421Z,3.20
2018-03-26T00:39:03.966Z,3.30
2018-03-26T00:41:31.512Z,3.30
2018-03-26T00:43:59.095Z,3.30
2018-03-26T00:46:27.387Z,3.30
2018-03-26T00:48:54.901Z,3.20
2018-03-26T00:51:22.441Z,3.30
2018-03-26T00:53:50.718Z,3.30
2018-03-26T00:56:18.234Z,3.30
2018-03-26T00:58:45.774Z,3.30
2018-03-26T01:01:13.286Z,3.30
2018-03-26T01:03:40.799Z,3.30
2018-03-26T01:06:08.408Z,3.40
2018-03-26T01:08:35.931Z,3.30
2018-03-26T01:11:03.447Z,3.20
2018-03-26T01:13:30.985Z,3.20
2018-03-26T01:15:58.510Z,3.10
2018-03-26T01:18:26.791Z,3.00
2018-03-26T01:20:55.114Z,3.10
2018-03-26T01:23:23.304Z,3.10
2018-03-26T01:25:50.821Z,3.00
2018-03-26T01:28:19.119Z,3.10
2018-03-26T01:30:46.627Z,3.10
2018-03-26T01:33:14.138Z,3.10
2018-03-26T01:35:41.672Z,3.00
2018-03-26T01:38:09.947Z,2.80
2018-03-26T01:40:37.813Z,2.70
2018-03-26T01:43:05.450Z,2.90
2018-03-26T01:45:33.039Z,2.90
2018-03-26T01:48:01.341Z,2.80
2018-03-26T01:50:28.894Z,2.70
2018-03-26T01:52:56.636Z,2.70
2018-03-26T01:55:24.154Z,2.70
2018-03-26T01:57:51.686Z,2.70
2018-03-26T02:00:19.280Z,2.70
2018-03-26T02:02:47.557Z,2.70
2018-03-26T02:05:15.862Z,2.60
2018-03-26T02:07:43.482Z,2.60
2018-03-26T02:10:10.956Z,2.60
2018-03-26T02:12:39.259Z,2.60
2018-03-26T02:15:06.819Z,2.60
2018-03-26T02:17:35.114Z,2.50
2018-03-26T02:20:02.641Z,2.50
2018-03-26T02:22:30.311Z,2.60
2018-03-26T02:24:59.330Z,2.40
2018-03-26T02:27:27.629Z,2.40
2018-03-26T02:29:55.139Z,2.30
2018-03-26T02:32:22.852Z,2.40
2018-03-26T02:34:50.565Z,2.30
2018-03-26T02:37:18.092Z,2.30
2018-03-26T02:39:45.655Z,2.40
2018-03-26T02:42:13.275Z,2.40
2018-03-26T02:44:40.806Z,2.30
2018-03-26T02:47:08.329Z,2.20
2018-03-26T02:49:36.636Z,2.30
2018-03-26T02:52:04.154Z,2.20
2018-03-26T02:54:32.445Z,2.30
2018-03-26T02:57:00.769Z,2.30
2018-03-26T02:59:28.281Z,2.30
2018-03-26T03:01:56.573Z,2.20
2018-03-26T03:04:24.129Z,2.20
2018-03-26T03:06:52.456Z,2.20
2018-03-26T03:09:20.483Z,2.20
2018-03-26T03:11:48.087Z,2.20
2018-03-26T03:14:15.603Z,2.20
2018-03-26T03:16:43.363Z,2.20
2018-03-26T03:19:10.904Z,2.10
2018-03-26T03:21:38.419Z,2.10
2018-03-26T03:24:06.847Z,2.10
2018-03-26T03:26:34.674Z,2.00
2018-03-26T03:29:02.985Z,2.10
2018-03-26T03:31:30.510Z,2.00
2018-03-26T03:33:58.815Z,2.00
2018-03-26T03:36:27.084Z,2.00
2018-03-26T03:38:54.645Z,1.90
2018-03-26T03:41:22.174Z,2.10
2018-03-26T03:43:49.763Z,2.00
2018-03-26T03:46:18.039Z,1.90
2018-03-26T03:48:45.568Z,1.90
2018-03-26T03:51:13.080Z,1.90
2018-03-26T03:53:41.359Z,2.00
2018-03-26T03:56:08.933Z,1.90
2018-03-26T03:58:37.214Z,1.90
2018-03-26T04:01:05.513Z,1.90
2018-03-26T04:03:33.159Z,1.90
2018-03-26T04:06:01.450Z,1.90
2018-03-26T04:08:29.811Z,1.80
2018-03-26T04:10:57.341Z,1.80
2018-03-26T04:13:25.006Z,1.80
2018-03-26T04:15:52.875Z,1.80
2018-03-26T04:18:20.434Z,1.80
2018-03-26T04:20:47.955Z,1.70
2018-03-26T04:23:16.232Z,1.70
2018-03-26T04:25:45.349Z,1.70
2018-03-26T04:28:12.862Z,1.70
2018-03-26T04:30:40.524Z,1.90
2018-03-26T04:33:08.057Z,1.90
2018-03-26T04:35:35.620Z,1.80
2018-03-26T04:38:03.940Z,1.70
2018-03-26T04:40:31.486Z,1.70
2018-03-26T04:43:00.050Z,1.80
2018-03-26T04:45:28.411Z,1.90
2018-03-26T04:47:55.963Z,1.80
2018-03-26T04:50:23.507Z,1.90
2018-03-26T04:52:51.041Z,1.90
2018-03-26T04:55:18.617Z,1.90
2018-03-26T04:57:46.127Z,1.80
2018-03-26T05:00:13.754Z,1.80
2018-03-26T05:02:41.305Z,1.90
2018-03-26T05:05:08.904Z,1.90
2018-03-26T05:07:38.092Z,1.80
2018-03-26T05:10:05.636Z,1.80
2018-03-26T05:12:33.147Z,1.90
2018-03-26T05:15:00.712Z,1.90
2018-03-26T05:17:29.239Z,2.20
2018-03-26T05:19:56.846Z,2.10
2018-03-26T05:22:24.535Z,2.30
2018-03-26T05:24:52.071Z,2.30
2018-03-26T05:27:19.582Z,2.20
2018-03-26T05:29:47.910Z,2.30
2018-03-26T05:32:15.503Z,2.20
2018-03-26T05:34:43.094Z,2.30
2018-03-26T05:37:11.367Z,2.60
2018-03-26T05:39:40.158Z,2.60
2018-03-26T05:42:08.604Z,2.70
2018-03-26T05:44:36.130Z,2.70
2018-03-26T05:47:04.528Z,2.90
2018-03-26T05:49:32.533Z,2.80
2018-03-26T05:52:00.139Z,3.00
2018-03-26T05:54:28.479Z,2.80
2018-03-26T05:56:56.002Z,2.70
2018-03-26T05:59:24.304Z,2.90
2018-03-26T06:01:51.864Z,2.90
2018-03-26T06:04:19.396Z,3.00
2018-03-26T06:06:47.670Z,3.00
2018-03-26T06:09:15.239Z,2.90
2018-03-26T06:11:42.983Z,2.90
2018-03-26T06:14:10.500Z,3.00
2018-03-26T06:16:54.894Z,3.00
2018-03-26T06:19:22.420Z,3.00
2018-03-26T06:21:49.945Z,3.00
2018-03-26T06:24:18.271Z,3.10
2018-03-26T06:26:45.814Z,3.00
2018-03-26T06:29:14.103Z,3.00
2018-03-26T06:31:41.631Z,3.00
2018-03-26T06:34:09.934Z,3.20
2018-03-26T06:36:43.248Z,3.20
2018-03-26T06:39:27.446Z,3.20
2018-03-26T06:41:54.976Z,3.30
2018-03-26T06:44:22.495Z,3.20
2018-03-26T06:46:50.774Z,3.30
2018-03-26T06:49:19.138Z,3.30
2018-03-26T06:51:47.439Z,3.40
2018-03-26T06:54:15.730Z,3.20
2018-03-26T06:56:43.320Z,3.20
2018-03-26T06:59:10.832Z,3.30
2018-03-26T07:01:39.866Z,3.40
2018-03-26T07:04:07.398Z,3.40
2018-03-26T07:06:34.926Z,3.40
2018-03-26T07:09:02.440Z,3.50
2018-03-26T07:11:31.682Z,3.60
2018-03-26T07:13:59.196Z,3.50
2018-03-26T07:16:27.495Z,3.40
2018-03-26T07:18:55.858Z,3.50
2018-03-26T07:21:23.409Z,3.40
2018-03-26T07:23:50.931Z,3.60
2018-03-26T07:26:25.185Z,3.50
2018-03-26T07:28:54.361Z,3.60
2018-03-26T07:31:21.898Z,3.60
2018-03-26T07:33:49.477Z,3.80
2018-03-26T07:36:17.062Z,4.00
2018-03-26T07:38:44.590Z,4.00
2018-03-26T07:41:12.978Z,3.80
2018-03-26T07:43:40.472Z,3.80
2018-03-26T07:46:07.984Z,4.00
2018-03-26T07:48:35.526Z,4.10
2018-03-26T07:51:03.094Z,4.10
2018-03-26T07:53:32.153Z,4.50
2018-03-26T07:55:59.947Z,4.40
2018-03-26T07:58:27.485Z,4.60
2018-03-26T08:00:54.993Z,4.70
2018-03-26T08:03:23.316Z,5.00
2018-03-26T08:05:50.943Z,4.90
2018-03-26T08:08:18.474Z,4.90
2018-03-26T08:10:46.035Z,5.00
2018-03-26T08:13:13.564Z,5.10
2018-03-26T08:15:41.837Z,5.20
2018-03-26T08:18:10.149Z,5.20
2018-03-26T08:20:37.671Z,5.10
2018-03-26T08:23:05.410Z,5.10
2018-03-26T08:25:33.731Z,5.50
2018-03-26T08:28:01.255Z,5.40
2018-03-26T08:30:29.543Z,5.50
2018-03-26T08:32:57.077Z,5.50
2018-03-26T08:35:24.585Z,5.70
2018-03-26T08:37:52.219Z,5.80
2018-03-26T08:40:19.755Z,5.90
2018-03-26T08:42:47.270Z,6.00
2018-03-26T08:45:14.789Z,5.90
2018-03-26T08:47:42.351Z,6.00
2018-03-26T08:50:10.072Z,5.90
2018-03-26T08:52:38.405Z,6.00
2018-03-26T08:55:06.066Z,5.90
2018-03-26T08:57:33.582Z,6.00
2018-03-26T09:00:02.609Z,5.70
2018-03-26T09:02:31.168Z,5.70
2018-03-26T09:04:58.803Z,5.90
2018-03-26T09:07:26.771Z,5.70
2018-03-26T09:09:55.056Z,5.80
2018-03-26T09:12:24.118Z,6.00
2018-03-26T09:14:52.398Z,6.00
2018-03-26T09:17:20.719Z,6.10
2018-03-26T09:19:48.234Z,6.10
2018-03-26T09:22:16.538Z,6.00
2018-03-26T09:24:44.138Z,6.00
2018-03-26T09:27:11.703Z,5.90
2018-03-26T09:29:39.234Z,5.90
2018-03-26T09:32:06.859Z,5.90
2018-03-26T09:34:34.382Z,5.80
2018-03-26T09:37:01.908Z,5.90
2018-03-26T09:39:30.216Z,5.90
2018-03-26T09:41:57.723Z,5.80
2018-03-26T09:44:25.259Z,6.10
2018-03-26T09:46:52.914Z,6.20
2018-03-26T09:49:20.434Z,6.30
2018-03-26T09:51:48.711Z,6.60
2018-03-26T09:54:17.131Z,6.70
2018-03-26T09:56:45.398Z,6.70
2018-03-26T09:59:13.681Z,6.60
2018-03-26T10:02:02.724Z,6.60
2018-03-26T10:04:31.037Z,6.80
2018-03-26T10:06:58.557Z,6.70
2018-03-26T10:09:26.104Z,7.10
2018-03-26T10:11:53.659Z,7.40
2018-03-26T10:14:21.181Z,7.40
2018-03-26T10:16:49.496Z,7.60
2018-03-26T10:19:17.013Z,7.60
2018-03-26T10:21:45.290Z,7.50
2018-03-26T10:24:13.626Z,7.90
2018-03-26T10:26:41.147Z,7.80
2018-03-26T10:29:09.422Z,7.80
2018-03-26T10:31:36.964Z,7.80
2018-03-26T10:34:04.487Z,7.80
2018-03-26T10:36:32.034Z,7.90
2018-03-26T10:38:59.583Z,7.90
2018-03-26T10:41:27.103Z,8.20
2018-03-26T10:43:54.622Z,8.20
2018-03-26T10:46:22.929Z,8.50
2018-03-26T10:48:50.466Z,8.50
2018-03-26T10:51:18.864Z,8.60
2018-03-26T10:53:46.396Z,8.60
2018-03-26T10:56:14.753Z,9.00
2018-03-26T10:58:42.275Z,8.90
2018-03-26T11:01:09.822Z,9.00
2018-03-26T11:03:38.146Z,8.90
2018-03-26T11:06:05.670Z,8.90
2018-03-26T11:08:33.980Z,9.10
2018-03-26T11:11:01.520Z,9.10
2018-03-26T11:13:29.055Z,9.20
2018-03-26T11:15:56.607Z,9.20
2018-03-26T11:18:24.127Z,9.40
2018-03-26T11:20:51.638Z,9.20
2018-03-26T11:23:19.162Z,9.20
2018-03-26T11:25:46.687Z,9.40
2018-03-26T11:28:15.027Z,9.40
2018-03-26T11:30:42.597Z,9.40
2018-03-26T11:33:10.100Z,9.30
2018-03-26T11:35:38.391Z,9.40
2018-03-26T11:38:06.691Z,9.60
2018-03-26T11:40:34.219Z,9.50
2018-03-26T11:43:02.503Z,9.60
2018-03-26T11:45:30.811Z,9.60
2018-03-26T11:47:58.335Z,9.60
2018-03-26T11:50:26.985Z,9.70
2018-03-26T11:52:54.526Z,9.50
2018-03-26T11:55:22.823Z,9.60
2018-03-26T11:57:50.538Z,9.50
2018-03-26T12:00:19.633Z,9.70
2018-03-26T12:02:47.263Z,9.70
2018-03-26T12:05:14.851Z,9.70
2018-03-26T12:07:42.438Z,9.50
2018-03-26T12:10:10.734Z,9.40
2018-03-26T12:12:38.326Z,9.30
2018-03-26T12:15:05.908Z,9.30
2018-03-26T12:17:33.472Z,9.20
2018-03-26T12:20:12.918Z,9.20
2018-03-26T12:22:40.444Z,9.30
2018-03-26T12:25:11.567Z,9.20
2018-03-26T12:27:51.863Z,9.30
2018-03-26T12:30:20.114Z,9.20
2018-03-26T12:32:48.411Z,9.40
2018-03-26T12:35:27.874Z,9.30
2018-03-26T12:37:55.387Z,9.50
2018-03-26T12:40:34.703Z,9.60
2018-03-26T12:43:02.258Z,9.60
2018-03-26T12:45:41.619Z,9.70
2018-03-26T12:48:09.141Z,9.60
2018-03-26T12:50:48.716Z,9.60
2018-03-26T12:53:16.292Z,9.60
2018-03-26T12:55:44.591Z,9.50
2018-03-26T12:58:24.183Z,9.50
2018-03-26T13:01:15.574Z,9.60
2018-03-26T13:03:43.138Z,9.60
2018-03-26T13:06:10.663Z,9.60
2018-03-26T13:08:38.945Z,9.70
2018-03-26T13:11:07.266Z,9.60
2018-03-26T13:13:34.771Z,9.60
2018-03-26T13:16:02.296Z,9.70
2018-03-26T13:18:29.851Z,9.70
2018-03-26T13:20:57.401Z,9.70
2018-03-26T13:23:24.910Z,9.80
2018-03-26T13:25:52.449Z,9.70
2018-03-26T13:28:19.966Z,9.70
2018-03-26T13:30:48.251Z,9.90
2018-03-26T13:33:16.586Z,9.90
2018-03-26T13:35:44.207Z,9.80
2018-03-26T13:38:11.738Z,9.90
2018-03-26T13:40:39.286Z,10.00
2018-03-26T13:43:06.812Z,9.90
2018-03-26T13:45:34.325Z,9.90
2018-03-26T13:48:01.862Z,10.00
2018-03-26T13:50:29.431Z,10.00
2018-03-26T13:52:56.951Z,10.00
2018-03-26T13:55:25.254Z,10.00
2018-03-26T13:57:52.774Z,10.00
2018-03-26T14:00:20.476Z,10.10
2018-03-26T14:02:48.028Z,10.00
2018-03-26T14:05:16.305Z,10.20
2018-03-26T14:07:44.583Z,10.10
2018-03-26T14:10:24.945Z,10.30
2018-03-26T14:13:05.054Z,10.40
2018-03-26T14:15:44.636Z,10.30
2018-03-26T14:18:12.931Z,10.40
2018-03-26T14:20:40.508Z,10.30
2018-03-26T14:23:08.071Z,10.20
2018-03-26T14:25:35.595Z,10.10
2018-03-26T14:28:04.618Z,10.10
2018-03-26T14:30:33.059Z,10.10
2018-03-26T14:33:00.574Z,10.10
2018-03-26T14:35:43.089Z,10.20
2018-03-26T14:38:10.620Z,10.10
2018-03-26T14:40:38.913Z,10.10
2018-03-26T14:43:06.516Z,10.00
2018-03-26T14:45:34.035Z,10.00
2018-03-26T14:48:01.591Z,9.90
2018-03-26T14:50:29.197Z,9.90
2018-03-26T14:52:56.726Z,10.00
2018-03-26T14:55:25.092Z,9.90
2018-03-26T14:57:52.651Z,9.90
2018-03-26T15:00:20.174Z,9.90
2018-03-26T15:02:47.710Z,9.90
2018-03-26T15:05:15.290Z,9.90
2018-03-26T15:07:42.798Z,9.90
2018-03-26T15:10:10.327Z,9.90
2018-03-26T15:12:37.859Z,9.80
2018-03-26T15:15:06.149Z,9.60
2018-03-26T15:17:34.441Z,9.60
2018-03-26T15:20:01.975Z,9.50
2018-03-26T15:22:29.491Z,9.50
2018-03-26T15:24:57.022Z,9.50
2018-03-26T15:27:24.578Z,9.50
2018-03-26T15:29:52.140Z,9.40
2018-03-26T15:32:20.436Z,9.40
2018-03-26T15:34:48.043Z,9.30
2018-03-26T15:37:15.609Z,9.30
2018-03-26T15:39:43.151Z,9.20
2018-03-26T15:42:10.712Z,9.20
2018-03-26T15:44:38.227Z,9.20
2018-03-26T15:47:05.754Z,9.10
2018-03-26T15:49:33.602Z,9.10
2018-03-26T15:52:01.114Z,9.10
2018-03-26T15:54:28.639Z,9.00
2018-03-26T15:56:56.175Z,9.00
2018-03-26T15:59:24.554Z,9.00
2018-03-26T16:01:51.622Z,8.90
2018-03-26T16:04:19.930Z,9.00
2018-03-26T16:06:47.476Z,9.00
2018-03-26T16:09:15.077Z,9.00
2018-03-26T16:11:42.718Z,9.00
2018-03-26T16:14:10.222Z,9.10
2018-03-26T16:16:37.727Z,9.00
2018-03-26T16:19:06.031Z,8.90
2018-03-26T16:21:33.543Z,8.80
2018-03-26T16:24:01.066Z,8.80
2018-03-26T16:26:28.614Z,8.70
2018-03-26T16:28:56.183Z,8.70
2018-03-26T16:31:23.699Z,8.70
2018-03-26T16:33:52.760Z,8.50
2018-03-26T16:36:20.282Z,8.50
2018-03-26T16:38:48.560Z,8.50
2018-03-26T16:41:28.956Z,8.50
2018-03-26T16:43:56.468Z,8.50
2018-03-26T16:46:23.994Z,8.50
2018-03-26T16:48:51.546Z,8.40
2018-03-26T16:51:19.057Z,8.40
2018-03-26T16:53:46.619Z,8.40
2018-03-26T16:56:14.168Z,8.40
2018-03-26T16:58:41.686Z,8.30
2018-03-26T17:01:09.214Z,8.30
2018-03-26T17:03:38.282Z,8.10
2018-03-26T17:06:05.804Z,8.10
2018-03-26T17:08:34.093Z,8.20
2018-03-26T17:11:02.456Z,8.20
2018-03-26T17:13:29.910Z,8.10
2018-03-26T17:15:58.211Z,8.10
2018-03-26T17:18:26.502Z,8.10
2018-03-26T17:20:54.011Z,8.10
2018-03-26T17:23:21.533Z,8.10
2018-03-26T17:25:49.082Z,8.10
2018-03-26T17:28:16.618Z,8.00
2018-03-26T17:30:44.147Z,8.10
2018-03-26T17:33:11.717Z,8.00
2018-03-26T17:35:39.239Z,7.90
2018-03-26T17:38:06.764Z,7.90
2018-03-26T17:40:34.593Z,7.80
2018-03-26T17:43:02.122Z,7.80
2018-03-26T17:45:29.643Z,7.80
2018-03-26T17:47:57.201Z,7.70
2018-03-26T17:50:24.727Z,7.70
2018-03-26T17:52:53.007Z,7.60
2018-03-26T17:55:21.305Z,7.50
2018-03-26T17:57:48.832Z,7.50
2018-03-26T18:00:16.978Z,7.40
2018-03-26T18:02:44.534Z,7.40
2018-03-26T18:05:12.091Z,7.40
2018-03-26T18:07:39.619Z,7.40
2018-03-26T18:10:07.976Z,7.30
2018-03-26T18:12:35.454Z,7.30
2018-03-26T18:15:03.762Z,7.30
2018-03-26T18:17:32.066Z,7.30
2018-03-26T18:19:59.567Z,7.30
2018-03-26T18:22:27.163Z,7.30
2018-03-26T18:24:55.459Z,7.30
2018-03-26T18:27:23.733Z,7.30
2018-03-26T18:29:52.267Z,7.30
2018-03-26T18:32:19.818Z,7.20
2018-03-26T18:34:47.342Z,7.30
2018-03-26T18:37:15.638Z,7.30
2018-03-26T18:39:43.214Z,7.20
2018-03-26T18:42:10.726Z,7.30
2018-03-26T18:44:38.236Z,7.20
2018-03-26T18:47:05.772Z,7.30
2018-03-26T18:49:34.058Z,7.30
2018-03-26T18:52:02.383Z,7.30
2018-03-26T18:54:29.999Z,7.30
2018-03-26T18:56:58.328Z,7.30
2018-03-26T18:59:25.944Z,7.20
2018-03-26T19:01:53.494Z,7.30
2018-03-26T19:04:21.024Z,7.20
2018-03-26T19:06:48.637Z,7.20
2018-03-26T19:09:16.959Z,7.20
2018-03-26T19:11:44.483Z,7.10
2018-03-26T19:14:12.811Z,7.10
2018-03-26T19:16:40.401Z,7.10
2018-03-26T19:19:07.901Z,7.20
2018-03-26T19:21:35.461Z,7.10
2018-03-26T19:24:03.023Z,7.10
2018-03-26T19:26:30.549Z,7.00
2018-03-26T19:28:58.084Z,7.00
2018-03-26T19:31:25.606Z,7.00
2018-03-26T19:33:53.908Z,7.00
2018-03-26T19:36:22.191Z,7.00
2018-03-26T19:38:50.499Z,7.00
2018-03-26T19:41:18.085Z,7.00
2018-03-26T19:43:45.634Z,6.90
2018-03-26T19:46:13.211Z,7.00
2018-03-26T19:48:43.033Z,7.00
2018-03-26T19:51:10.747Z,7.00
2018-03-26T19:53:39.062Z,7.00
2018-03-26T19:56:06.581Z,7.00
2018-03-26T19:58:34.118Z,6.90
2018-03-26T20:01:01.745Z,6.90
2018-03-26T20:03:29.270Z,6.80
2018-03-26T20:05:56.794Z,6.90
2018-03-26T20:08:24.407Z,6.80
2018-03-26T20:10:52.742Z,6.80
2018-03-26T20:13:20.438Z,6.70
2018-03-26T20:15:48.913Z,6.80
2018-03-26T20:18:16.696Z,6.80
2018-03-26T20:20:44.361Z,6.80
2018-03-26T20:23:12.875Z,6.80
2018-03-26T20:25:40.442Z,6.70
2018-03-26T20:28:08.735Z,6.80
2018-03-26T20:30:37.044Z,6.70
2018-03-26T20:33:04.575Z,6.70
2018-03-26T20:35:32.850Z,6.70
2018-03-26T20:38:01.909Z,6.70
2018-03-26T20:40:29.740Z,6.70
2018-03-26T20:42:58.017Z,6.70
2018-03-26T20:45:26.362Z,6.70
2018-03-26T20:47:53.902Z,6.60
2018-03-26T20:50:21.441Z,6.70
2018-03-26T20:52:48.987Z,6.60
2018-03-26T20:55:16.733Z,6.70
2018-03-26T20:57:45.027Z,6.70
2018-03-26T21:00:13.322Z,6.70
2018-03-26T21:02:41.602Z,6.70
2018-03-26T21:05:09.133Z,6.70
2018-03-26T21:07:38.182Z,6.60
2018-03-26T21:10:05.806Z,6.60
2018-03-26T21:12:33.346Z,6.70
2018-03-26T21:15:00.886Z,6.70
2018-03-26T21:17:28.389Z,6.70
2018-03-26T21:19:56.745Z,6.70
2018-03-26T21:22:24.281Z,6.60
2018-03-26T21:24:51.807Z,6.70
2018-03-26T21:27:19.423Z,6.70
2018-03-26T21:29:47.235Z,6.70
2018-03-26T21:32:14.771Z,6.70
2018-03-26T21:34:42.279Z,6.70
2018-03-26T21:37:09.802Z,6.70
2018-03-26T21:39:37.322Z,6.60
2018-03-26T21:42:05.682Z,6.60
2018-03-26T21:44:33.256Z,6.60
2018-03-26T21:47:01.529Z,6.60
2018-03-26T21:49:29.810Z,6.50
2018-03-26T21:51:58.123Z,6.50
2018-03-26T21:54:25.659Z,6.50
2018-03-26T21:56:53.963Z,6.50
2018-03-26T21:59:21.513Z,6.40
2018-03-26T22:01:49.802Z,6.50
2018-03-26T22:04:18.089Z,6.50
2018-03-26T22:06:46.452Z,6.50
2018-03-26T22:09:13.961Z,6.50
2018-03-26T22:11:41.574Z,6.60
2018-03-26T22:16:38.912Z,6.60
2018-03-26T22:19:07.254Z,6.60
2018-03-26T22:21:35.547Z,6.60
2018-03-26T22:24:03.891Z,6.50
2018-03-26T22:26:32.181Z,6.40
2018-03-26T22:28:59.700Z,6.30
2018-03-26T22:31:28.154Z,6.40
2018-03-26T22:33:56.446Z,6.50
2018-03-26T22:36:23.970Z,6.50
2018-03-26T22:38:51.506Z,6.50
2018-03-26T22:41:19.031Z,6.40
2018-03-26T22:43:47.331Z,6.40
2018-03-26T22:46:14.883Z,6.30
2018-03-26T22:48:43.166Z,6.20
2018-03-26T22:51:10.706Z,6.20
2018-03-26T22:53:39.105Z,6.30
2018-03-26T22:56:07.389Z,6.20
2018-03-26T22:58:35.677Z,6.20
2018-03-26T23:01:03.214Z,6.20
2018-03-26T23:03:31.539Z,6.20
2018-03-26T23:05:59.052Z,6.20
2018-03-26T23:08:26.587Z,6.10
2018-03-26T23:10:54.095Z,6.10
2018-03-26T23:13:22.459Z,6.00
2018-03-26T23:15:50.138Z,6.00
2018-03-26T23:18:18.411Z,6.10
2018-03-26T23:20:45.931Z,6.00
2018-03-26T23:23:13.487Z,6.00
2018-03-26T23:25:41.030Z,6.10
2018-03-26T23:28:09.325Z,6.20
2018-03-26T23:30:36.870Z,6.10
2018-03-26T23:33:05.154Z,6.20
2018-03-26T23:35:33.447Z,6.20
2018-03-26T23:38:01.003Z,6.10
2018-03-26T23:40:28.535Z,6.20
2018-03-26T23:42:56.056Z,6.10
2018-03-26T23:45:23.615Z,6.10
2018-03-26T23:47:51.319Z,6.00
2018-03-26T23:50:18.829Z,5.90
2018-03-26T23:52:47.155Z,5.90
2018-03-26T23:55:14.668Z,5.80
2018-03-26T23:57:42.963Z,5.90
